Time;durP1;ratioP1;P1;durP2;ratioP2;P2;SDS_P1;SDS_P2;PMS_P1;PMS_P2;Temp;Humidity;BMP_temperature;BMP_pressure;BME280_temperature;BME280_humidity;BME280_pressure;Samples;Min_cycle;Max_cycle;Signal;HPM_P1;HPM_P2
2022/06/26 00:01:20;;;;;;;;;;;;;;;19.96;nan;99280.47;4932460;29;19965;-74
2022/06/26 00:03:46;;;;;;;;;;;;;;;19.89;nan;99292.78;4925417;29;20052;-76
2022/06/26 00:06:11;;;;;;;;;;;;;;;19.77;nan;99289.59;4925682;29;19981;-75
2022/06/26 00:08:36;;;;;;;;;;;;;;;19.72;nan;99277.78;4920125;28;20085;-76
2022/06/26 00:11:02;;;;;;;;;;;;;;;19.67;nan;99279.09;4929798;29;20027;-75
2022/06/26 00:13:27;;;;;;;;;;;;;;;19.62;nan;99284.03;4923525;29;20375;-74
2022/06/26 00:15:52;;;;;;;;;;;;;;;19.53;nan;99293.00;4924497;29;20272;-77
2022/06/26 00:18:18;;;;;;;;;;;;;;;19.50;nan;99300.50;4926759;29;20020;-74
2022/06/26 00:20:43;;;;;;;;;;;;;;;19.52;nan;99298.50;4933096;29;20439;-75
2022/06/26 00:23:09;;;;;;;;;;;;;;;19.54;nan;99299.16;4928233;29;20064;-75
2022/06/26 00:25:34;;;;;;;;;;;;;;;19.49;nan;99294.31;4924913;29;19969;-74
2022/06/26 00:28:00;;;;;;;;;;;;;;;19.49;nan;99291.66;4929054;29;19993;-77
2022/06/26 00:30:25;;;;;;;;;;;;;;;19.50;nan;99304.00;4926427;29;19970;-74
2022/06/26 00:32:51;;;;;;;;;;;;;;;19.49;nan;99304.97;4906933;29;20479;-76
2022/06/26 00:35:16;;;;;;;;;;;;;;;19.45;nan;99293.00;4928187;28;19978;-77
2022/06/26 00:37:41;;;;;;;;;;;;;;;19.45;nan;99290.34;4924394;29;19981;-76
2022/06/26 00:40:08;;;;;;;;;;;;;;;19.46;nan;99286.66;4934251;29;20592;-76
2022/06/26 00:42:33;;;;;;;;;;;;;;;19.46;nan;99282.16;4931878;29;19970;-75
2022/06/26 00:44:58;;;;;;;;;;;;;;;19.46;nan;99273.34;4925882;29;20465;-74
2022/06/26 00:47:24;;;;;;;;;;;;;;;19.44;nan;99270.00;4929975;29;19999;-76
2022/06/26 00:49:49;;;;;;;;;;;;;;;19.44;nan;99285.97;4933524;29;20013;-74
2022/06/26 00:52:16;;;;;;;;;;;;;;;19.43;nan;99279.81;4928591;29;19974;-75
2022/06/26 00:54:41;;;;;;;;;;;;;;;19.42;nan;99285.34;4932580;29;19969;-74
2022/06/26 00:57:06;;;;;;;;;;;;;;;19.38;nan;99283.97;4930810;29;20051;-74
2022/06/26 00:59:32;;;;;;;;;;;;;;;19.40;nan;99287.31;4917768;29;19978;-77
2022/06/26 01:01:58;;;;;;;;;;;;;;;19.41;nan;99276.47;4929204;29;20059;-77
2022/06/26 01:04:23;;;;;;;;;;;;;;;19.41;nan;99270.34;4915750;29;20019;-76
2022/06/26 01:06:49;;;;;;;;;;;;;;;19.37;nan;99277.81;4930991;29;20272;-76
2022/06/26 01:09:14;;;;;;;;;;;;;;;19.33;nan;99275.63;4928089;29;19993;-75
2022/06/26 01:11:41;;;;;;;;;;;;;;;19.32;nan;99281.97;4912825;29;19977;-77
2022/06/26 01:14:07;;;;;;;;;;;;;;;19.32;nan;99287.28;4927418;29;20359;-74
2022/06/26 01:16:33;;;;;;;;;;;;;;;19.36;nan;99288.63;4914517;29;19986;-74
2022/06/26 01:18:59;;;;;;;;;;;;;;;19.37;nan;99292.97;4914807;29;19975;-77
2022/06/26 01:21:25;;;;;;;;;;;;;;;19.38;nan;99286.63;4917753;29;20036;-77
2022/06/26 01:23:51;;;;;;;;;;;;;;;19.41;nan;99280.97;4911385;29;20483;-78
2022/06/26 01:26:17;;;;;;;;;;;;;;;19.42;nan;99286.16;4927240;29;19969;-78
2022/06/26 01:28:43;;;;;;;;;;;;;;;19.45;nan;99290.34;4909220;29;20466;-75
2022/06/26 01:31:08;;;;;;;;;;;;;;;19.43;nan;99282.50;4927869;29;19981;-73
2022/06/26 01:33:35;;;;;;;;;;;;;;;19.39;nan;99283.81;4913452;29;19969;-74
2022/06/26 01:36:00;;;;;;;;;;;;;;;19.39;nan;99278.50;4925401;29;19974;-74
2022/06/26 01:38:26;;;;;;;;;;;;;;;19.41;nan;99286.31;4910930;29;19969;-76
2022/06/26 01:40:53;;;;;;;;;;;;;;;19.40;nan;99284.66;4914736;29;19977;-77
2022/06/26 01:43:19;;;;;;;;;;;;;;;19.41;nan;99283.66;4913555;29;20429;-77
2022/06/26 01:45:50;;;;;;;;;;;;;;;19.41;nan;99284.47;4907515;29;20456;-77
2022/06/26 01:48:15;;;;;;;;;;;;;;;19.35;nan;99273.66;4922382;29;20197;-75
2022/06/26 01:50:41;;;;;;;;;;;;;;;19.28;nan;99268.16;4914228;29;19972;-75
2022/06/26 01:53:08;;;;;;;;;;;;;;;19.26;nan;99274.63;4914588;29;19997;-78
2022/06/26 01:55:34;;;;;;;;;;;;;;;19.26;nan;99282.63;4930918;29;19972;-77
2022/06/26 01:58:03;;;;;;;;;;;;;;;19.28;nan;99291.25;4954470;23;20485;-89
2022/06/26 02:00:30;;;;;;;;;;;;;;;19.27;nan;99292.25;4918242;29;20028;-90
2022/06/26 02:02:55;;;;;;;;;;;;;;;19.22;nan;99298.06;4921016;29;20178;-90
2022/06/26 02:05:21;;;;;;;;;;;;;;;19.18;nan;99294.06;4919487;29;20602;-90
2022/06/26 02:07:46;;;;;;;;;;;;;;;19.14;nan;99287.38;4916605;29;19989;-89
2022/06/26 02:15:41;;;;;;;;;;;;;;;19.13;nan;99273.25;4916833;29;20008;-88
2022/06/26 02:18:06;;;;;;;;;;;;;;;19.15;nan;99262.44;4921145;29;20008;-89
2022/06/26 02:20:40;;;;;;;;;;;;;;;19.14;nan;99258.09;4923070;29;20330;-88
2022/06/26 02:23:09;;;;;;;;;;;;;;;19.12;nan;99265.41;4924022;29;19969;-89
2022/06/26 02:25:35;;;;;;;;;;;;;;;19.10;nan;99256.78;4917796;29;20746;-89
2022/06/26 02:28:01;;;;;;;;;;;;;;;19.07;nan;99259.75;4916914;29;20013;-90
2022/06/26 02:30:29;;;;;;;;;;;;;;;19.00;nan;99244.41;4919505;29;20017;-90
2022/06/26 02:32:56;;;;;;;;;;;;;;;18.95;nan;99236.06;4921035;29;20000;-91
2022/06/26 02:35:22;;;;;;;;;;;;;;;18.93;nan;99232.75;4918805;29;20000;-88
2022/06/26 02:37:48;;;;;;;;;;;;;;;18.94;nan;99242.41;4919636;29;19997;-90
2022/06/26 02:40:13;;;;;;;;;;;;;;;18.92;nan;99244.38;4919347;29;19973;-89
2022/06/26 02:42:41;;;;;;;;;;;;;;;18.91;nan;99268.50;4917766;29;19984;-88
2022/06/26 02:45:06;;;;;;;;;;;;;;;18.90;nan;99267.69;4918229;29;20056;-88
2022/06/26 02:47:37;;;;;;;;;;;;;;;18.91;nan;99279.16;4919093;29;19996;-88
2022/06/26 02:50:05;;;;;;;;;;;;;;;18.87;nan;99288.44;4918696;29;20004;-89
2022/06/26 02:52:31;;;;;;;;;;;;;;;18.81;nan;99284.56;4918714;29;19973;-89
2022/06/26 02:55:01;;;;;;;;;;;;;;;18.78;nan;99290.22;4909257;29;20532;-87
2022/06/26 02:57:27;;;;;;;;;;;;;;;18.76;nan;99284.22;4912741;29;20197;-88
2022/06/26 02:59:53;;;;;;;;;;;;;;;18.75;nan;99286.03;4902796;29;20493;-89
2022/06/26 03:02:20;;;;;;;;;;;;;;;18.74;nan;99275.50;4919198;29;19980;-91
2022/06/26 03:04:57;;;;;;;;;;;;;;;18.70;nan;99266.19;4918840;29;19975;-89
2022/06/26 03:07:25;;;;;;;;;;;;;;;18.69;nan;99273.34;4914563;29;19966;-91
2022/06/26 03:09:51;;;;;;;;;;;;;;;18.64;nan;99278.31;4918036;29;19970;-92
2022/06/26 03:12:17;;;;;;;;;;;;;;;18.61;nan;99278.63;4916470;29;19996;-91
2022/06/26 03:14:44;;;;;;;;;;;;;;;18.60;nan;99276.94;4916780;29;20709;-92
2022/06/26 03:17:12;;;;;;;;;;;;;;;18.62;nan;99269.63;4911997;29;19989;-91
2022/06/26 03:19:38;;;;;;;;;;;;;;;18.63;nan;99267.81;4918255;29;20097;-91
2022/06/26 03:22:07;;;;;;;;;;;;;;;18.63;nan;99273.13;4918383;29;19969;-90
2022/06/26 03:24:32;;;;;;;;;;;;;;;18.63;nan;99273.13;4917303;29;19966;-90
2022/06/26 03:27:02;;;;;;;;;;;;;;;18.61;nan;99278.63;4911282;29;19965;-90
2022/06/26 03:29:27;;;;;;;;;;;;;;;18.58;nan;99278.94;4917753;29;19990;-90
2022/06/26 03:32:35;;;;;;;;;;;;;;;18.58;nan;99279.78;4901351;29;19985;-92
2022/06/26 03:34:55;;;;;;;;;;;;;;;18.59;nan;99280.59;4907996;29;20326;-90
2022/06/26 03:37:24;;;;;;;;;;;;;;;18.58;nan;99279.78;4914926;29;20567;-90
2022/06/26 03:39:50;;;;;;;;;;;;;;;18.56;nan;99276.44;4917717;29;20025;-90
2022/06/26 03:42:16;;;;;;;;;;;;;;;18.55;nan;99280.09;4918315;29;20125;-91
2022/06/26 03:44:41;;;;;;;;;;;;;;;18.58;nan;99281.59;4876806;29;19989;-91
2022/06/26 03:47:07;;;;;;;;;;;;;;;18.57;nan;99274.59;4914653;29;20496;-90
2022/06/26 03:49:35;;;;;;;;;;;;;;;18.58;nan;99270.97;4909067;29;20029;-93
2022/06/26 03:52:04;;;;;;;;;;;;;;;18.57;nan;99266.63;4916457;29;19977;-91
2022/06/26 03:54:39;;;;;;;;;;;;;;;18.58;nan;99265.66;4917268;29;20011;-91
2022/06/26 03:57:05;;;;;;;;;;;;;;;18.61;nan;99265.31;4915288;29;19993;-92
2022/06/26 03:59:33;;;;;;;;;;;;;;;18.66;nan;99267.50;4914181;29;19970;-91
2022/06/26 04:02:01;;;;;;;;;;;;;;;18.73;nan;99273.84;4910866;29;19985;-90
2022/06/26 04:04:29;;;;;;;;;;;;;;;18.77;nan;99262.78;4915187;29;20461;-89
2022/06/26 04:06:57;;;;;;;;;;;;;;;18.83;nan;99266.63;4914715;29;19976;-92
2022/06/26 04:09:28;;;;;;;;;;;;;;;18.86;nan;99262.81;4908018;29;20173;-89
2022/06/26 04:11:54;;;;;;;;;;;;;;;18.89;nan;99271.31;4907271;29;19970;-90
2022/06/26 04:14:20;;;;;;;;;;;;;;;18.95;nan;99276.00;4916480;29;20327;-90
2022/06/26 04:16:46;;;;;;;;;;;;;;;19.01;nan;99269.22;4911051;29;19996;-90
2022/06/26 04:19:14;;;;;;;;;;;;;;;19.08;nan;99264.91;4916034;29;19976;-92
2022/06/26 04:21:42;;;;;;;;;;;;;;;19.13;nan;99270.59;4924439;29;20032;-90
2022/06/26 04:24:08;;;;;;;;;;;;;;;19.17;nan;99269.28;4913160;29;20049;-90
2022/06/26 04:26:36;;;;;;;;;;;;;;;19.07;nan;99262.41;4902834;29;20008;-91
2022/06/26 04:29:02;;;;;;;;;;;;;;;18.88;nan;99263.50;4917264;29;20048;-92
2022/06/26 04:31:27;;;;;;;;;;;;;;;18.74;nan;99259.56;4902617;29;20393;-91
2022/06/26 04:37:34;;;;;;;;;;;;;;;18.60;nan;99228.22;4829263;29;20114;-90
2022/06/26 04:40:19;;;;;;;;;;;;;;;;;;;;;
2022/06/26 04:43:00;;;;;;;;;;;;;;;;;;;;;
2022/06/26 04:45:43;;;;;;;;;;;;;;;18.74;nan;99209.88;4920395;29;19965;-92
2022/06/26 04:48:19;;;;;;;;;;;;;;;18.87;nan;99221.91;4937225;29;19990;-92
2022/06/26 04:51:05;;;;;;;;;;;;;;;19.05;nan;99217.31;4931689;29;19969;-91
2022/06/26 04:53:32;;;;;;;;;;;;;;;19.42;nan;99210.75;4933392;29;19974;-91
2022/06/26 04:56:00;;;;;;;;;;;;;;;19.59;nan;99224.91;4905109;29;19966;-93
2022/06/26 04:58:49;;;;;;;;;;;;;;;19.99;nan;99228.63;4905047;29;19995;-91
2022/06/26 05:01:29;;;;;;;;;;;;;;;20.27;nan;99258.44;4924886;29;20001;-92
2022/06/26 05:10:54;;;;;;;;;;;;;;;21.59;nan;99257.00;4897292;29;19992;-69
2022/06/26 05:13:20;;;;;;;;;;;;;;;22.29;nan;99254.13;4906081;29;20084;-70
2022/06/26 05:15:56;;;;;;;;;;;;;;;22.87;nan;99258.88;4895960;29;19980;-70
2022/06/26 05:18:22;;;;;;;;;;;;;;;23.29;nan;99247.47;4900047;29;19989;-70
2022/06/26 05:20:47;;;;;;;;;;;;;;;23.63;nan;99241.47;4898466;29;19965;-70
2022/06/26 05:23:14;;;;;;;;;;;;;;;23.79;nan;99234.19;4903831;29;20037;-70
2022/06/26 05:25:47;;;;;;;;;;;;;;;23.53;nan;99243.63;4898717;29;19974;-70
2022/06/26 05:28:13;;;;;;;;;;;;;;;23.76;nan;99239.94;4887296;29;19986;-70
2022/06/26 05:30:38;;;;;;;;;;;;;;;24.15;nan;99250.22;4917591;29;19966;-71
2022/06/26 05:33:08;;;;;;;;;;;;;;;24.11;nan;99242.75;4891262;29;19974;-71
2022/06/26 05:35:34;;;;;;;;;;;;;;;23.76;nan;99245.31;4887500;29;19966;-71
2022/06/26 05:38:00;;;;;;;;;;;;;;;23.38;nan;99245.50;4915061;29;20084;-70
2022/06/26 05:40:26;;;;;;;;;;;;;;;23.12;nan;99254.91;4902128;29;19969;-70
2022/06/26 05:42:53;;;;;;;;;;;;;;;22.87;nan;99266.91;4888288;29;19996;-70
2022/06/26 05:45:21;;;;;;;;;;;;;;;22.64;nan;99267.00;4888523;29;19974;-70
2022/06/26 05:48:06;;;;;;;;;;;;;;;22.48;nan;99265.31;4906395;29;20652;-70
2022/06/26 05:50:47;;;;;;;;;;;;;;;22.40;nan;99270.75;4882548;29;20020;-71
2022/06/26 05:53:33;;;;;;;;;;;;;;;22.27;nan;99277.53;4901505;29;20072;-71
2022/06/26 05:56:04;;;;;;;;;;;;;;;22.21;nan;99278.28;4883350;29;19976;-70
2022/06/26 05:58:50;;;;;;;;;;;;;;;22.14;nan;99265.78;4919355;29;20459;-70
2022/06/26 06:01:38;;;;;;;;;;;;;;;22.09;nan;99274.34;4904962;29;19973;-70
2022/06/26 06:04:10;;;;;;;;;;;;;;;22.06;nan;99269.34;4888710;29;19973;-70
2022/06/26 06:06:36;;;;;;;;;;;;;;;22.04;nan;99268.72;4889363;29;19973;-70
2022/06/26 06:09:04;;;;;;;;;;;;;;;22.09;nan;99282.38;4888390;29;19990;-71
2022/06/26 06:11:30;;;;;;;;;;;;;;;22.08;nan;99286.88;4911177;29;20350;-71
2022/06/26 06:13:55;;;;;;;;;;;;;;;22.13;nan;99283.66;4898162;29;20361;-71
2022/06/26 06:16:24;;;;;;;;;;;;;;;22.10;nan;99282.19;4882891;29;20064;-71
2022/06/26 06:18:49;;;;;;;;;;;;;;;22.21;nan;99267.56;4918230;29;20028;-70
2022/06/26 06:21:15;;;;;;;;;;;;;;;22.00;nan;99270.91;4887928;29;20053;-70
2022/06/26 06:23:42;;;;;;;;;;;;;;;22.01;nan;99277.94;4900588;29;19969;-71
2022/06/26 06:26:08;;;;;;;;;;;;;;;22.24;nan;99288.63;4901392;29;20024;-71
2022/06/26 06:28:33;;;;;;;;;;;;;;;22.52;nan;99290.69;4899837;29;20495;-70
2022/06/26 06:30:59;;;;;;;;;;;;;;;22.58;nan;99284.63;4888735;29;20005;-70
2022/06/26 06:33:26;;;;;;;;;;;;;;;22.47;nan;99287.75;4890171;29;20345;-71
2022/06/26 06:35:55;;;;;;;;;;;;;;;22.39;nan;99291.34;4904175;29;20317;-71
2022/06/26 06:38:21;;;;;;;;;;;;;;;22.36;nan;99306.91;4886084;29;20472;-71
2022/06/26 06:40:52;;;;;;;;;;;;;;;22.30;nan;99322.69;4891477;29;20427;-70
2022/06/26 06:43:23;;;;;;;;;;;;;;;22.24;nan;99323.41;4893629;29;19967;-70
2022/06/26 06:46:07;;;;;;;;;;;;;;;22.25;nan;99332.25;4916122;29;19987;-71
2022/06/26 06:48:34;;;;;;;;;;;;;;;22.30;nan;99328.06;4916590;29;19969;-71
2022/06/26 06:51:20;;;;;;;;;;;;;;;22.40;nan;99329.63;4900206;29;20163;-71
2022/06/26 06:53:46;;;;;;;;;;;;;;;22.47;nan;99331.41;4912584;29;19966;-71
2022/06/26 06:56:11;;;;;;;;;;;;;;;22.61;nan;99327.09;4917411;29;20006;-71
2022/06/26 06:58:36;;;;;;;;;;;;;;;22.72;nan;99323.97;4886195;29;20039;-72
2022/06/26 07:01:06;;;;;;;;;;;;;;;22.66;nan;99329.22;4910674;29;20465;-71
2022/06/26 07:03:31;;;;;;;;;;;;;;;22.64;nan;99337.44;4896381;29;19983;-71
2022/06/26 07:05:56;;;;;;;;;;;;;;;22.66;nan;99335.41;4884102;29;20367;-71
2022/06/26 07:08:21;;;;;;;;;;;;;;;22.69;nan;99343.09;4888383;29;20039;-72
2022/06/26 07:10:47;;;;;;;;;;;;;;;22.70;nan;99335.88;4901086;29;20061;-71
2022/06/26 07:13:12;;;;;;;;;;;;;;;22.74;nan;99329.97;4898890;29;19956;-71
2022/06/26 07:15:37;;;;;;;;;;;;;;;22.71;nan;99334.84;4911314;29;19976;-71
2022/06/26 07:18:03;;;;;;;;;;;;;;;22.65;nan;99335.59;4912148;29;19959;-71
2022/06/26 07:20:28;;;;;;;;;;;;;;;22.65;nan;99341.75;4890459;29;20404;-71
2022/06/26 07:22:54;;;;;;;;;;;;;;;22.72;nan;99339.22;4888591;29;19989;-71
2022/06/26 07:25:28;;;;;;;;;;;;;;;22.91;nan;99337.84;4898660;29;19995;-71
2022/06/26 07:28:04;;;;;;;;;;;;;;;23.09;nan;99345.56;4903878;29;20381;-71
2022/06/26 07:30:34;;;;;;;;;;;;;;;23.19;nan;99354.94;4897901;29;20027;-71
2022/06/26 07:35:54;;;;;;;;;;;;;;;23.38;nan;99363.44;4890028;29;20770;-71
2022/06/26 07:38:19;;;;;;;;;;;;;;;23.48;nan;99374.72;4885168;29;19973;-71
2022/06/26 07:40:45;;;;;;;;;;;;;;;23.32;nan;99372.25;4900079;29;19973;-71
2022/06/26 07:43:11;;;;;;;;;;;;;;;22.95;nan;99376.63;4883322;29;20018;-71
2022/06/26 07:45:36;;;;;;;;;;;;;;;23.03;nan;99383.78;4884130;29;19981;-72
2022/06/26 07:48:05;;;;;;;;;;;;;;;23.15;nan;99382.31;4911093;29;19982;-72
2022/06/26 07:50:33;;;;;;;;;;;;;;;23.27;nan;99388.03;4896236;29;20316;-71
2022/06/26 07:52:58;;;;;;;;;;;;;;;23.43;nan;99393.19;4913058;29;19959;-71
2022/06/26 07:55:23;;;;;;;;;;;;;;;23.58;nan;99393.22;4901523;29;19949;-71
2022/06/26 07:57:49;;;;;;;;;;;;;;;23.71;nan;99382.69;4928996;23;20028;-70
2022/06/26 08:00:14;;;;;;;;;;;;;;;23.76;nan;99387.47;4928188;29;19943;-71
2022/06/26 08:02:40;;;;;;;;;;;;;;;23.78;nan;99375.53;4934626;29;19938;-71
2022/06/26 08:05:06;;;;;;;;;;;;;;;23.91;nan;99374.03;4939502;29;20031;-71
2022/06/26 08:07:31;;;;;;;;;;;;;;;24.26;nan;99375.00;4916826;29;20456;-72
2022/06/26 08:09:57;;;;;;;;;;;;;;;24.53;nan;99377.97;4938306;29;19931;-71
2022/06/26 08:12:22;;;;;;;;;;;;;;;24.72;nan;99372.75;4938154;29;19971;-73
2022/06/26 08:14:47;;;;;;;;;;;;;;;24.88;nan;99379.69;4938594;29;19954;-72
2022/06/26 08:17:13;;;;;;;;;;;;;;;24.96;nan;99365.28;4938833;29;20215;-72
2022/06/26 08:19:38;;;;;;;;;;;;;;;24.89;nan;99359.00;4937539;29;19932;-72
2022/06/26 08:22:04;;;;;;;;;;;;;;;24.66;nan;99364.66;4938352;29;19940;-72
2022/06/26 08:24:30;;;;;;;;;;;;;;;24.47;nan;99358.09;4918402;29;19935;-72
2022/06/26 08:26:56;;;;;;;;;;;;;;;24.41;nan;99361.50;4934432;29;19939;-72
2022/06/26 08:29:21;;;;;;;;;;;;;;;24.41;nan;99369.56;4937621;29;19956;-73
2022/06/26 08:31:46;;;;;;;;;;;;;;;24.48;nan;99368.63;4935590;29;19938;-72
2022/06/26 08:34:14;;;;;;;;;;;;;;;24.48;nan;99368.63;4937542;29;19971;-71
2022/06/26 08:36:39;;;;;;;;;;;;;;;24.41;nan;99373.09;4936648;29;19935;-72
2022/06/26 08:39:05;;;;;;;;;;;;;;;24.31;nan;99372.56;4936130;29;19932;-72
2022/06/26 08:41:33;;;;;;;;;;;;;;;24.14;nan;99379.19;4938594;29;19935;-73
2022/06/26 08:43:58;;;;;;;;;;;;;;;23.89;nan;99376.06;4940937;29;19939;-73
2022/06/26 08:46:26;;;;;;;;;;;;;;;23.77;nan;99370.38;4936479;29;19978;-72
2022/06/26 08:48:52;;;;;;;;;;;;;;;23.71;nan;99365.69;4915802;29;20055;-72
2022/06/26 08:51:18;;;;;;;;;;;;;;;23.76;nan;99368.69;4937117;29;20019;-72
2022/06/26 08:53:44;;;;;;;;;;;;;;;23.80;nan;99376.16;4938539;29;20105;-73
2022/06/26 08:56:10;;;;;;;;;;;;;;;23.88;nan;99375.22;4937750;28;20439;-72
2022/06/26 08:58:35;;;;;;;;;;;;;;;23.92;nan;99356.91;4940806;29;19942;-72
2022/06/26 09:01:04;;;;;;;;;;;;;;;24.00;nan;99360.28;4943257;29;20528;-72
2022/06/26 09:03:31;;;;;;;;;;;;;;;24.06;nan;99358.69;4941041;29;20316;-72
2022/06/26 09:05:56;;;;;;;;;;;;;;;24.03;nan;99359.94;4941394;29;20428;-71
2022/06/26 09:08:21;;;;;;;;;;;;;;;24.07;nan;99363.88;4922200;29;20003;-71
2022/06/26 09:10:47;;;;;;;;;;;;;;;24.13;nan;99364.13;4942509;29;19943;-72
2022/06/26 09:13:13;;;;;;;;;;;;;;;24.21;nan;99356.78;4941151;29;19936;-73
2022/06/26 09:15:42;;;;;;;;;;;;;;;24.19;nan;99350.78;4943549;29;20019;-73
2022/06/26 09:18:08;;;;;;;;;;;;;;;24.10;nan;99351.94;4916531;29;19955;-73
2022/06/26 09:20:35;;;;;;;;;;;;;;;24.03;nan;99357.25;4939172;29;20630;-73
2022/06/26 09:23:01;;;;;;;;;;;;;;;24.00;nan;99365.66;4940750;29;20442;-72
2022/06/26 09:25:52;;;;;;;;;;;;;;;24.04;nan;99366.13;4942384;29;19932;-72
2022/06/26 09:28:19;;;;;;;;;;;;;;;24.04;nan;99358.91;4937946;29;20009;-73
2022/06/26 09:31:05;;;;;;;;;;;;;;;24.05;nan;99354.34;4943889;29;19928;-72
2022/06/26 09:33:32;;;;;;;;;;;;;;;24.05;nan;99349.81;4941098;29;20062;-73
2022/06/26 09:35:58;;;;;;;;;;;;;;;24.03;nan;99349.19;4942885;29;19962;-73
2022/06/26 09:38:24;;;;;;;;;;;;;;;24.00;nan;99341.50;4941692;29;19958;-73
2022/06/26 09:40:57;;;;;;;;;;;;;;;23.96;nan;99342.91;4942227;29;19934;-72
2022/06/26 09:43:27;;;;;;;;;;;;;;;23.94;nan;99334.22;4941946;29;19928;-73
2022/06/26 09:45:54;;;;;;;;;;;;;;;23.81;nan;99339.44;4941867;29;20254;-73
2022/06/26 09:48:20;;;;;;;;;;;;;;;23.83;nan;99343.59;4942255;29;19954;-73
2022/06/26 09:50:46;;;;;;;;;;;;;;;24.15;nan;99340.63;4942249;29;19932;-72
2022/06/26 09:53:13;;;;;;;;;;;;;;;24.55;nan;99327.56;4941358;29;19935;-73
2022/06/26 09:55:38;;;;;;;;;;;;;;;24.68;nan;99322.28;4944766;29;19932;-71
2022/06/26 09:58:03;;;;;;;;;;;;;;;24.56;nan;99313.13;4947532;29;19963;-75
2022/06/26 10:00:31;;;;;;;;;;;;;;;24.55;nan;99332.94;4943978;29;20442;-72
2022/06/26 10:08:26;;;;;;;;;;;;;;;25.52;nan;99315.94;4944285;29;19978;-73
2022/06/26 10:10:53;;;;;;;;;;;;;;;25.77;nan;99325.13;4948039;29;20131;-73
2022/06/26 10:13:19;;;;;;;;;;;;;;;25.93;nan;99321.28;4948925;29;19972;-71
2022/06/26 10:15:50;;;;;;;;;;;;;;;26.07;nan;99318.59;4949187;29;20167;-73
2022/06/26 10:18:25;;;;;;;;;;;;;;;26.43;nan;99313.63;4954424;29;20429;-72
2022/06/26 10:20:52;;;;;;;;;;;;;;;26.57;nan;99316.34;4953530;29;19935;-72
2022/06/26 10:23:32;;;;;;;;;;;;;;;26.65;nan;99317.00;4954249;29;19942;-73
2022/06/26 10:25:57;;;;;;;;;;;;;;;26.60;nan;99319.47;4950817;29;19942;-73
2022/06/26 10:28:23;;;;;;;;;;;;;;;26.51;nan;99309.94;4953136;29;19987;-73
2022/06/26 10:30:48;;;;;;;;;;;;;;;26.47;nan;99306.81;4940314;29;19939;-72
2022/06/26 10:33:16;;;;;;;;;;;;;;;26.58;nan;99302.69;4958194;29;19940;-73
2022/06/26 10:35:41;;;;;;;;;;;;;;;26.66;nan;99301.66;4953302;29;20387;-72
2022/06/26 10:38:24;;;;;;;;;;;;;;;26.96;nan;99302.00;4953222;29;20002;-73
2022/06/26 10:43:59;;;;;;;;;;;;;;;26.95;nan;99311.13;4912035;29;20468;-72
2022/06/26 10:46:25;;;;;;;;;;;;;;;26.84;nan;99315.31;4909150;29;19939;-72
2022/06/26 10:48:54;;;;;;;;;;;;;;;26.86;nan;99312.38;4925870;29;19960;-74
2022/06/26 10:51:26;;;;;;;;;;;;;;;26.65;nan;99308.91;4945754;29;19987;-73
2022/06/26 10:53:51;;;;;;;;;;;;;;;26.89;nan;99303.88;4946000;29;19964;-73
2022/06/26 10:56:16;;;;;;;;;;;;;;;27.27;nan;99303.16;4945658;29;20493;-73
2022/06/26 10:58:44;;;;;;;;;;;;;;;27.38;nan;99304.34;4946731;29;19968;-74
2022/06/26 11:01:11;;;;;;;;;;;;;;;27.25;nan;99295.31;4946549;29;19943;-73
2022/06/26 11:03:37;;;;;;;;;;;;;;;27.10;nan;99297.38;4945803;29;19943;-74
2022/06/26 11:06:03;;;;;;;;;;;;;;;27.04;nan;99282.06;4944613;29;20057;-74
2022/06/26 11:08:30;;;;;;;;;;;;;;;27.01;nan;99279.81;4946837;29;19955;-73
2022/06/26 11:10:59;;;;;;;;;;;;;;;26.92;nan;99268.41;4945914;29;19985;-73
2022/06/26 11:13:24;;;;;;;;;;;;;;;26.96;nan;99269.66;4946635;29;20398;-74
2022/06/26 11:15:50;;;;;;;;;;;;;;;27.05;nan;99273.75;4947653;29;19936;-74
2022/06/26 11:18:15;;;;;;;;;;;;;;;27.10;nan;99265.03;4946597;28;19959;-74
2022/06/26 11:20:49;;;;;;;;;;;;;;;27.25;nan;99256.72;4948684;29;20329;-74
2022/06/26 11:23:16;;;;;;;;;;;;;;;27.24;nan;99255.06;4947428;29;19975;-74
2022/06/26 11:25:42;;;;;;;;;;;;;;;27.13;nan;99261.91;4948873;29;19980;-74
2022/06/26 11:28:08;;;;;;;;;;;;;;;26.99;nan;99250.34;4944904;29;20067;-74
2022/06/26 11:30:35;;;;;;;;;;;;;;;26.97;nan;99255.13;4950153;29;19992;-74
2022/06/26 11:33:00;;;;;;;;;;;;;;;27.06;nan;99258.44;4950884;29;19976;-74
2022/06/26 11:35:26;;;;;;;;;;;;;;;27.07;nan;99254.69;4951422;29;19977;-73
2022/06/26 11:37:51;;;;;;;;;;;;;;;26.98;nan;99256.78;4943576;29;20012;-74
2022/06/26 11:40:17;;;;;;;;;;;;;;;26.91;nan;99255.97;4945933;29;19996;-73
2022/06/26 11:42:43;;;;;;;;;;;;;;;26.91;nan;99245.19;4948339;29;20064;-74
2022/06/26 11:45:08;;;;;;;;;;;;;;;26.88;nan;99245.63;4948656;29;20037;-72
2022/06/26 11:47:36;;;;;;;;;;;;;;;26.90;nan;99238.16;4944658;29;19985;-73
2022/06/26 11:50:02;;;;;;;;;;;;;;;26.83;nan;99234.66;4945505;29;19973;-74
2022/06/26 11:52:27;;;;;;;;;;;;;;;26.74;nan;99241.31;4946843;29;19967;-72
2022/06/26 11:54:58;;;;;;;;;;;;;;;26.76;nan;99244.63;4948474;29;20534;-72
2022/06/26 11:57:24;;;;;;;;;;;;;;;26.77;nan;99241.72;4945742;29;20021;-72
2022/06/26 11:59:49;;;;;;;;;;;;;;;26.78;nan;99234.47;4946725;29;19977;-71
2022/06/26 12:02:18;;;;;;;;;;;;;;;26.80;nan;99233.22;4948416;29;20023;-73
2022/06/26 12:04:53;;;;;;;;;;;;;;;26.82;nan;99219.53;4946540;29;20435;-72
2022/06/26 12:07:18;;;;;;;;;;;;;;;26.86;nan;99205.41;4944201;29;20032;-72
2022/06/26 12:09:43;;;;;;;;;;;;;;;26.90;nan;99200.44;4947329;29;19993;-73
2022/06/26 12:12:12;;;;;;;;;;;;;;;26.78;nan;99207.50;4946402;29;19977;-74
2022/06/26 12:14:43;;;;;;;;;;;;;;;26.66;nan;99224.34;4946132;29;20384;-74
2022/06/26 12:17:08;;;;;;;;;;;;;;;26.54;nan;99230.56;4945774;29;20284;-73
2022/06/26 12:19:37;;;;;;;;;;;;;;;26.55;nan;99238.47;4948132;29;20347;-73
2022/06/26 12:22:03;;;;;;;;;;;;;;;26.51;nan;99226.44;4946468;29;20483;-73
2022/06/26 12:24:28;;;;;;;;;;;;;;;26.45;nan;99230.78;4948766;29;19984;-72
2022/06/26 12:26:56;;;;;;;;;;;;;;;26.44;nan;99226.44;4946695;29;19969;-73
2022/06/26 12:29:22;;;;;;;;;;;;;;;26.32;nan;99224.59;4947502;29;19989;-72
2022/06/26 12:31:48;;;;;;;;;;;;;;;26.18;nan;99229.97;4951416;28;20107;-72
2022/06/26 12:34:13;;;;;;;;;;;;;;;26.07;nan;99233.28;4951918;29;20069;-73
2022/06/26 12:36:39;;;;;;;;;;;;;;;26.05;nan;99229.97;4953455;29;19977;-72
2022/06/26 12:39:05;;;;;;;;;;;;;;;25.99;nan;99226.25;4949143;29;20033;-73
2022/06/26 12:41:30;;;;;;;;;;;;;;;25.98;nan;99213.84;4952965;29;19975;-73
2022/06/26 12:43:56;;;;;;;;;;;;;;;26.01;nan;99218.00;4953343;29;20028;-72
2022/06/26 12:46:22;;;;;;;;;;;;;;;26.10;nan;99214.03;4951133;29;20530;-73
2022/06/26 12:48:48;;;;;;;;;;;;;;;26.25;nan;99209.28;4950530;29;20072;-72
2022/06/26 12:51:14;;;;;;;;;;;;;;;26.43;nan;99210.47;4950189;29;20060;-73
2022/06/26 12:53:40;;;;;;;;;;;;;;;26.49;nan;99209.63;4949504;29;20004;-73
2022/06/26 12:56:06;;;;;;;;;;;;;;;26.59;nan;99210.06;4947509;29;20040;-74
2022/06/26 12:58:32;;;;;;;;;;;;;;;26.55;nan;99197.25;4944847;29;20519;-75
2022/06/26 13:00:57;;;;;;;;;;;;;;;26.45;nan;99194.94;4948531;29;19973;-76
2022/06/26 13:03:23;;;;;;;;;;;;;;;26.37;nan;99190.59;4947338;29;19970;-77
2022/06/26 13:05:48;;;;;;;;;;;;;;;26.38;nan;99196.81;4948997;29;19992;-77
2022/06/26 13:08:14;;;;;;;;;;;;;;;26.41;nan;99201.78;4947299;29;19995;-74
2022/06/26 13:10:40;;;;;;;;;;;;;;;26.46;nan;99185.81;4950448;29;19965;-73
2022/06/26 13:13:06;;;;;;;;;;;;;;;26.47;nan;99180.22;4949024;29;19969;-75
2022/06/26 13:15:31;;;;;;;;;;;;;;;26.36;nan;99183.56;4945181;29;19965;-74
2022/06/26 13:17:57;;;;;;;;;;;;;;;26.20;nan;99181.31;4946665;29;20101;-74
2022/06/26 13:20:22;;;;;;;;;;;;;;;26.13;nan;99184.00;4947069;29;19968;-74
2022/06/26 13:22:47;;;;;;;;;;;;;;;26.07;nan;99184.84;4945625;29;19969;-75
2022/06/26 13:25:13;;;;;;;;;;;;;;;26.22;nan;99176.53;4945764;29;20645;-74
2022/06/26 13:27:38;;;;;;;;;;;;;;;26.56;nan;99185.41;4942035;29;19985;-74
2022/06/26 13:30:04;;;;;;;;;;;;;;;26.87;nan;99187.41;4946667;29;20287;-75
2022/06/26 13:32:29;;;;;;;;;;;;;;;26.89;nan;99179.91;4943060;29;20061;-73
2022/06/26 13:34:55;;;;;;;;;;;;;;;26.73;nan;99178.50;4945707;29;19973;-73
2022/06/26 13:37:20;;;;;;;;;;;;;;;26.76;nan;99177.25;4939790;29;19993;-74
2022/06/26 13:39:45;;;;;;;;;;;;;;;26.77;nan;99170.84;4938655;29;19965;-73